createdAt,value
2022-08-20T00:00:22.959Z,20.85
2022-08-20T00:03:39.039Z,20.85
2022-08-20T00:06:45.004Z,20.85
2022-08-20T00:09:52.178Z,20.84
2022-08-20T00:13:01.216Z,20.80
2022-08-20T00:16:09.219Z,20.79
2022-08-20T00:19:17.021Z,20.78
2022-08-20T00:22:24.518Z,20.78
2022-08-20T00:25:31.208Z,20.78
2022-08-20T00:28:37.876Z,20.78
2022-08-20T00:31:44.125Z,20.76
2022-08-20T00:34:50.811Z,20.76
2022-08-20T00:38:00.656Z,20.75
2022-08-20T00:41:11.741Z,20.75
2022-08-20T00:44:26.912Z,20.71
2022-08-20T00:47:35.226Z,20.69
2022-08-20T00:50:45.817Z,20.66
2022-08-20T00:53:52.765Z,20.63
2022-08-20T00:57:00.682Z,20.61
2022-08-20T01:00:06.836Z,20.60
2022-08-20T01:03:13.110Z,20.59
2022-08-20T01:06:18.974Z,20.58
2022-08-20T01:09:49.491Z,20.59
2022-08-20T01:12:32.928Z,20.58
2022-08-20T01:15:43.225Z,20.57
2022-08-20T01:18:49.166Z,20.55
2022-08-20T01:21:55.325Z,20.53
2022-08-20T01:25:02.002Z,20.52
2022-08-20T01:28:09.067Z,20.50
2022-08-20T01:31:15.665Z,20.44
2022-08-20T01:34:25.557Z,20.39
2022-08-20T01:37:31.563Z,20.39
2022-08-20T01:40:46.414Z,20.38
2022-08-20T01:43:52.405Z,20.34
2022-08-20T01:47:01.098Z,20.29
2022-08-20T01:50:11.170Z,20.26
2022-08-20T01:53:36.986Z,20.24
2022-08-20T01:56:44.588Z,20.23
2022-08-20T01:59:50.959Z,20.20
2022-08-20T02:02:58.146Z,20.17
2022-08-20T02:06:04.506Z,20.15
2022-08-20T02:09:16.254Z,20.12
2022-08-20T02:12:24.637Z,20.09
2022-08-20T02:15:34.877Z,20.07
2022-08-20T02:18:37.968Z,20.02
2022-08-20T02:21:45.684Z,20.03
2022-08-20T02:24:53.066Z,20.03
2022-08-20T02:28:00.376Z,20.02
2022-08-20T02:31:08.364Z,20.01
2022-08-20T02:34:22.095Z,20.00
2022-08-20T02:37:25.378Z,19.96
2022-08-20T02:40:34.336Z,19.92
2022-08-20T02:43:40.177Z,19.91
2022-08-20T02:46:46.141Z,19.92
2022-08-20T02:49:53.543Z,19.93
2022-08-20T02:53:00.935Z,19.92
2022-08-20T02:56:06.182Z,19.92
2022-08-20T02:59:19.033Z,19.94
2022-08-20T03:02:22.821Z,19.98
2022-08-20T03:05:29.379Z,19.97
2022-08-20T03:08:35.544Z,19.99
2022-08-20T03:11:43.131Z,19.99
2022-08-20T03:14:50.167Z,19.99
2022-08-20T03:17:55.827Z,20.00
2022-08-20T03:21:03.064Z,19.99
2022-08-20T03:24:08.096Z,19.99
2022-08-20T03:27:13.390Z,19.97
2022-08-20T03:30:22.977Z,19.98
2022-08-20T03:33:28.534Z,20.00
2022-08-20T03:36:37.351Z,20.00
2022-08-20T03:39:42.944Z,20.04
2022-08-20T03:42:49.895Z,20.07
2022-08-20T03:45:56.158Z,20.10
2022-08-20T03:49:03.755Z,20.15
2022-08-20T03:52:10.537Z,20.18
2022-08-20T03:55:16.890Z,20.25
2022-08-20T03:58:34.793Z,20.34
2022-08-20T04:01:45.751Z,20.39
2022-08-20T04:04:41.555Z,20.48
2022-08-20T04:07:51.270Z,20.57
2022-08-20T04:10:59.125Z,20.64
2022-08-20T04:14:05.659Z,20.72
2022-08-20T04:17:11.399Z,20.75
2022-08-20T04:20:22.701Z,20.79
2022-08-20T04:23:28.732Z,20.82
2022-08-20T04:26:35.035Z,20.85
2022-08-20T04:29:42.004Z,20.85
2022-08-20T04:32:48.381Z,20.91
2022-08-20T04:35:54.123Z,20.98
2022-08-20T04:38:59.998Z,21.04
2022-08-20T04:42:06.159Z,21.10
2022-08-20T04:45:12.810Z,21.15
2022-08-20T04:48:22.396Z,21.19
2022-08-20T04:51:29.469Z,21.24
2022-08-20T04:54:37.466Z,21.28
2022-08-20T04:57:46.096Z,21.29
2022-08-20T05:00:54.118Z,21.32
2022-08-20T05:04:02.249Z,21.41
2022-08-20T05:07:09.079Z,21.48
2022-08-20T05:10:18.124Z,21.54
2022-08-20T05:13:27.285Z,21.62
2022-08-20T05:16:32.090Z,21.67
2022-08-20T05:19:38.991Z,21.76
2022-08-20T05:22:45.675Z,21.79
2022-08-20T05:25:57.522Z,21.87
2022-08-20T05:29:02.972Z,21.94
2022-08-20T05:32:09.973Z,22.05
2022-08-20T05:35:20.751Z,22.16
2022-08-20T05:38:29.143Z,22.23
2022-08-20T05:41:37.081Z,22.26
2022-08-20T05:44:44.970Z,22.34
2022-08-20T05:47:56.563Z,22.46
2022-08-20T05:51:04.264Z,22.52
2022-08-20T05:54:11.984Z,22.61
2022-08-20T05:57:16.697Z,22.67
2022-08-20T06:00:26.684Z,22.74
2022-08-20T06:03:53.808Z,22.79
2022-08-20T06:07:01.529Z,22.83
2022-08-20T06:10:10.420Z,22.89
2022-08-20T06:13:15.747Z,22.90
2022-08-20T06:16:22.889Z,22.95
2022-08-20T06:19:32.319Z,22.97
2022-08-20T06:22:36.862Z,23.02
2022-08-20T06:25:44.111Z,23.10
2022-08-20T06:28:54.073Z,23.18
2022-08-20T06:32:00.483Z,23.24
2022-08-20T06:35:11.090Z,23.29
2022-08-20T06:38:20.434Z,23.38
2022-08-20T06:41:36.895Z,23.43
2022-08-20T06:44:35.092Z,23.47
2022-08-20T06:47:42.263Z,23.49
2022-08-20T06:50:53.895Z,23.53
2022-08-20T06:53:58.860Z,23.56
2022-08-20T06:57:04.280Z,23.56
2022-08-20T07:00:11.080Z,23.61
2022-08-20T07:03:19.569Z,23.63
2022-08-20T07:06:26.612Z,23.67
2022-08-20T07:09:35.101Z,23.60
2022-08-20T07:12:43.109Z,23.58
2022-08-20T07:15:49.310Z,23.56
2022-08-20T07:18:59.524Z,23.67
2022-08-20T07:22:06.279Z,23.83
2022-08-20T07:25:15.225Z,24.01
2022-08-20T07:28:29.580Z,24.18
2022-08-20T07:31:53.850Z,24.34
2022-08-20T07:35:01.376Z,24.49
2022-08-20T07:38:08.233Z,24.54
2022-08-20T07:41:24.258Z,24.58
2022-08-20T07:44:34.707Z,24.65
2022-08-20T07:47:43.085Z,24.71
2022-08-20T07:50:52.052Z,24.75
2022-08-20T07:54:00.365Z,24.79
2022-08-20T07:57:07.468Z,24.82
2022-08-20T08:00:15.612Z,24.82
2022-08-20T08:03:22.648Z,24.74
2022-08-20T08:06:36.394Z,24.72
2022-08-20T08:09:43.603Z,24.81
2022-08-20T08:12:54.413Z,24.97
2022-08-20T08:16:04.907Z,25.08
2022-08-20T08:19:14.062Z,25.20
2022-08-20T08:22:24.103Z,25.33
2022-08-20T08:25:29.867Z,25.31
2022-08-20T08:28:39.169Z,25.33
2022-08-20T08:31:48.203Z,25.37
2022-08-20T08:34:54.819Z,25.41
2022-08-20T08:38:01.529Z,25.38
2022-08-20T08:41:13.195Z,25.44
2022-08-20T08:44:29.848Z,25.48
2022-08-20T08:47:45.573Z,25.56
2022-08-20T08:50:53.164Z,25.58
2022-08-20T08:54:07.182Z,25.62
2022-08-20T08:57:15.353Z,25.72
2022-08-20T09:00:28.672Z,25.85
2022-08-20T09:03:46.710Z,25.98
2022-08-20T09:06:55.231Z,26.05
2022-08-20T09:10:01.952Z,26.06
2022-08-20T09:13:08.599Z,26.15
2022-08-20T09:16:16.419Z,26.27
2022-08-20T09:19:25.615Z,26.34
2022-08-20T09:22:35.763Z,26.43
2022-08-20T09:25:42.124Z,26.48
2022-08-20T09:28:52.134Z,26.54
2022-08-20T09:31:59.973Z,26.52
2022-08-20T09:35:09.491Z,26.60
2022-08-20T09:38:16.830Z,26.70
2022-08-20T09:41:24.584Z,26.79
2022-08-20T09:44:31.677Z,26.82
2022-08-20T09:47:39.210Z,26.89
2022-08-20T09:50:47.720Z,27.02
2022-08-20T09:53:55.595Z,27.13
2022-08-20T09:57:05.406Z,27.22
2022-08-20T10:00:16.397Z,27.30
2022-08-20T10:03:22.644Z,27.40
2022-08-20T10:06:34.605Z,27.49
2022-08-20T10:09:40.020Z,27.61
2022-08-20T10:12:54.593Z,27.72
2022-08-20T10:15:57.741Z,27.82
2022-08-20T10:19:02.778Z,27.89
2022-08-20T10:22:10.748Z,27.92
2022-08-20T10:25:16.847Z,27.96
2022-08-20T10:28:24.809Z,28.03
2022-08-20T10:31:31.065Z,28.12
2022-08-20T10:34:39.880Z,28.15
2022-08-20T10:37:50.803Z,28.20
2022-08-20T10:41:02.238Z,28.28
2022-08-20T10:44:08.911Z,28.28
2022-08-20T10:47:34.782Z,28.38
2022-08-20T10:50:41.077Z,28.52
2022-08-20T10:53:47.550Z,28.63
2022-08-20T10:56:54.413Z,28.77
2022-08-20T11:00:00.925Z,28.88
2022-08-20T11:03:06.451Z,28.96
2022-08-20T11:06:14.903Z,29.10
2022-08-20T11:09:21.668Z,29.27
2022-08-20T11:12:28.417Z,29.43
2022-08-20T11:15:35.010Z,29.49
2022-08-20T11:18:46.286Z,29.61
2022-08-20T11:21:52.505Z,29.73
2022-08-20T11:24:59.012Z,29.79
2022-08-20T11:28:05.190Z,29.90
2022-08-20T11:31:12.287Z,29.98
2022-08-20T11:34:20.353Z,30.00
2022-08-20T11:37:29.079Z,30.07
2022-08-20T11:40:35.227Z,30.16
2022-08-20T11:43:47.882Z,30.19
2022-08-20T11:46:50.329Z,30.19
2022-08-20T11:49:58.330Z,30.24
2022-08-20T11:53:08.016Z,30.29
2022-08-20T11:56:14.179Z,30.38
2022-08-20T11:59:22.695Z,30.45
2022-08-20T12:02:29.878Z,30.46
2022-08-20T12:05:36.020Z,30.48
2022-08-20T12:08:42.645Z,30.45
2022-08-20T12:11:48.514Z,30.49
2022-08-20T12:14:56.210Z,30.61
2022-08-20T12:18:02.021Z,30.63
2022-08-20T12:21:09.467Z,30.70
2022-08-20T12:24:15.680Z,30.68
2022-08-20T12:27:43.753Z,30.63
2022-08-20T12:30:53.192Z,30.62
2022-08-20T12:33:59.538Z,30.65
2022-08-20T12:37:18.410Z,30.63
2022-08-20T12:40:37.689Z,30.56
2022-08-20T12:43:46.400Z,30.43
2022-08-20T12:46:53.205Z,30.38
2022-08-20T12:50:01.013Z,30.35
2022-08-20T12:53:10.545Z,30.29
2022-08-20T12:56:17.648Z,30.17
2022-08-20T12:59:26.220Z,30.11
2022-08-20T13:02:33.323Z,30.16
2022-08-20T13:05:43.308Z,30.26
2022-08-20T13:08:49.428Z,30.40
2022-08-20T13:11:56.249Z,30.47
2022-08-20T13:15:04.446Z,30.62
2022-08-20T13:18:12.904Z,30.77
2022-08-20T13:21:23.498Z,30.80
2022-08-20T13:24:29.986Z,30.85
2022-08-20T13:27:38.790Z,30.95
2022-08-20T13:30:49.664Z,30.97
2022-08-20T13:33:56.429Z,30.92
2022-08-20T13:37:02.802Z,30.73
2022-08-20T13:40:09.491Z,30.67
2022-08-20T13:43:18.032Z,30.71
2022-08-20T13:46:24.635Z,30.64
2022-08-20T13:49:33.838Z,30.56
2022-08-20T13:52:38.569Z,30.50
2022-08-20T13:55:45.011Z,30.49
2022-08-20T13:58:53.071Z,30.43
2022-08-20T14:02:07.037Z,30.36
2022-08-20T14:05:14.294Z,30.22
2022-08-20T14:08:34.575Z,29.95
2022-08-20T14:11:40.062Z,29.86
2022-08-20T14:14:46.026Z,29.84
2022-08-20T14:17:53.455Z,29.82
2022-08-20T14:21:02.345Z,29.84
2022-08-20T14:24:11.755Z,29.80
2022-08-20T14:27:21.286Z,29.75
2022-08-20T14:30:30.043Z,29.51
2022-08-20T14:33:42.559Z,29.43
2022-08-20T14:36:47.576Z,29.39
2022-08-20T14:39:55.389Z,29.28
2022-08-20T14:43:01.495Z,28.98
2022-08-20T14:46:07.842Z,28.98
2022-08-20T14:49:14.792Z,28.80
2022-08-20T14:52:21.436Z,28.59
2022-08-20T14:55:30.248Z,28.56
2022-08-20T14:58:36.186Z,28.59
2022-08-20T15:01:43.571Z,28.56
2022-08-20T15:04:54.448Z,28.50
2022-08-20T15:08:03.044Z,28.46
2022-08-20T15:11:09.674Z,28.40
2022-08-20T15:14:18.703Z,28.33
2022-08-20T15:17:27.955Z,28.26
2022-08-20T15:20:41.128Z,28.19
2022-08-20T15:23:48.250Z,28.12
2022-08-20T15:26:56.010Z,27.97
2022-08-20T15:30:03.551Z,27.83
2022-08-20T15:33:10.114Z,27.77
2022-08-20T15:36:16.711Z,27.71
2022-08-20T15:39:24.009Z,27.65
2022-08-20T15:42:29.787Z,27.57
2022-08-20T15:45:36.749Z,27.48
2022-08-20T15:48:56.488Z,27.35
2022-08-20T15:52:02.780Z,27.20
2022-08-20T15:55:09.873Z,26.98
2022-08-20T15:58:20.919Z,26.82
2022-08-20T16:01:47.114Z,26.62
2022-08-20T16:05:14.610Z,26.42
2022-08-20T16:08:53.170Z,26.23
2022-08-20T16:12:11.520Z,26.08
2022-08-20T16:15:25.725Z,25.93
2022-08-20T16:18:39.996Z,25.78
2022-08-20T16:21:50.891Z,25.67
2022-08-20T16:24:57.273Z,25.62
2022-08-20T16:28:27.675Z,25.57
2022-08-20T16:31:40.907Z,25.51
2022-08-20T16:35:12.641Z,25.47
2022-08-20T16:38:56.667Z,25.41
2022-08-20T16:42:05.761Z,25.34
2022-08-20T16:45:12.694Z,25.28
2022-08-20T16:48:21.561Z,25.21
2022-08-20T16:51:36.275Z,25.13
2022-08-20T16:54:42.536Z,25.08
2022-08-20T16:57:47.977Z,25.01
2022-08-20T17:00:55.106Z,24.99
2022-08-20T17:04:06.103Z,24.98
2022-08-20T17:07:14.072Z,24.96
2022-08-20T17:10:38.004Z,24.94
2022-08-20T17:13:51.221Z,24.91
2022-08-20T17:17:01.926Z,24.89
2022-08-20T17:20:16.252Z,24.86
2022-08-20T17:23:25.834Z,24.82
2022-08-20T17:26:50.379Z,24.77
2022-08-20T17:30:08.741Z,24.75
2022-08-20T17:33:18.182Z,24.71
2022-08-20T17:36:34.166Z,24.65
2022-08-20T17:39:42.008Z,24.63
2022-08-20T17:42:49.195Z,24.58
2022-08-20T17:45:59.971Z,24.52
2022-08-20T17:49:08.989Z,24.46
2022-08-20T17:52:17.457Z,24.42
2022-08-20T17:55:24.087Z,24.36
2022-08-20T17:58:31.537Z,24.31
2022-08-20T18:01:36.513Z,24.26
2022-08-20T18:04:42.373Z,24.21
2022-08-20T18:07:52.290Z,24.17
2022-08-20T18:11:12.919Z,24.14
2022-08-20T18:14:28.630Z,24.11
2022-08-20T18:17:55.548Z,24.06
2022-08-20T18:21:35.710Z,24.03
2022-08-20T18:25:19.433Z,23.98
2022-08-20T18:28:40.512Z,23.89
2022-08-20T18:32:01.057Z,23.78
2022-08-20T18:35:05.502Z,23.69
2022-08-20T18:38:12.456Z,23.60
2022-08-20T18:41:27.101Z,23.52
2022-08-20T18:44:55.168Z,23.42
2022-08-20T18:48:02.864Z,23.31
2022-08-20T18:51:12.054Z,23.20
2022-08-20T18:54:17.719Z,23.17
2022-08-20T18:57:41.127Z,23.14
2022-08-20T19:01:04.343Z,23.13
2022-08-20T19:04:12.544Z,23.11
2022-08-20T19:07:20.263Z,23.09
2022-08-20T19:10:48.250Z,23.08
2022-08-20T19:14:36.425Z,23.07
2022-08-20T19:18:25.453Z,23.05
2022-08-20T19:21:30.616Z,22.97
2022-08-20T19:24:43.714Z,22.85
2022-08-20T19:27:48.512Z,22.75
2022-08-20T19:30:56.987Z,22.68
2022-08-20T19:34:03.535Z,22.63
2022-08-20T19:37:35.058Z,22.60
2022-08-20T19:40:46.056Z,22.54
2022-08-20T19:43:57.025Z,22.48
2022-08-20T19:47:04.070Z,22.44
2022-08-20T19:50:31.937Z,22.41
2022-08-20T19:53:45.644Z,22.37
2022-08-20T19:56:56.199Z,22.31
2022-08-20T20:00:13.274Z,22.26
2022-08-20T20:03:29.099Z,22.23
2022-08-20T20:06:36.787Z,22.20
2022-08-20T20:09:43.571Z,22.17
2022-08-20T20:12:49.789Z,22.14
2022-08-20T20:15:55.124Z,22.10
2022-08-20T20:19:24.820Z,22.05
2022-08-20T20:22:29.458Z,22.03
2022-08-20T20:25:50.777Z,21.98
2022-08-20T20:29:02.674Z,21.96
2022-08-20T20:32:14.981Z,21.91
2022-08-20T20:35:24.113Z,21.88
2022-08-20T20:38:41.253Z,21.82
2022-08-20T20:41:46.559Z,21.79
2022-08-20T20:44:57.873Z,21.72
2022-08-20T20:48:07.103Z,21.63
2022-08-20T20:51:14.190Z,21.57
2022-08-20T20:54:37.044Z,21.52
2022-08-20T20:57:42.380Z,21.45
2022-08-20T21:00:49.566Z,21.41
2022-08-20T21:03:57.068Z,21.37
2022-08-20T21:07:02.924Z,21.32
2022-08-20T21:10:10.406Z,21.23
2022-08-20T21:13:18.016Z,21.19
2022-08-20T21:16:26.849Z,21.16
2022-08-20T21:19:33.811Z,21.12
2022-08-20T21:22:40.871Z,21.09
2022-08-20T21:25:47.901Z,21.08
2022-08-20T21:28:56.119Z,21.04
2022-08-20T21:32:02.990Z,21.01
2022-08-20T21:35:08.752Z,20.96
2022-08-20T21:38:15.107Z,20.91
2022-08-20T21:41:29.476Z,20.88
2022-08-20T21:44:39.829Z,20.84
2022-08-20T21:47:49.675Z,20.79
2022-08-20T21:50:58.000Z,20.77
2022-08-20T21:54:04.265Z,20.72
2022-08-20T21:57:15.033Z,20.69
2022-08-20T22:00:29.297Z,20.63
2022-08-20T22:03:42.002Z,20.58
2022-08-20T22:06:47.344Z,20.51
2022-08-20T22:09:55.935Z,20.47
2022-08-20T22:13:02.746Z,20.43
2022-08-20T22:16:10.035Z,20.39
2022-08-20T22:19:17.389Z,20.34
2022-08-20T22:22:27.493Z,20.32
2022-08-20T22:25:35.792Z,20.29
2022-08-20T22:28:41.967Z,20.26
2022-08-20T22:31:50.070Z,20.24
2022-08-20T22:34:58.182Z,20.18
2022-08-20T22:38:04.744Z,20.12
2022-08-20T22:41:10.604Z,20.09
2022-08-20T22:44:19.026Z,20.07
2022-08-20T22:47:26.338Z,19.99
2022-08-20T22:50:34.508Z,19.94
2022-08-20T22:53:41.297Z,19.91
2022-08-20T22:56:48.496Z,19.86
2022-08-20T22:59:57.221Z,19.83
2022-08-20T23:03:06.455Z,19.79
2022-08-20T23:06:14.050Z,19.75
2022-08-20T23:09:21.369Z,19.70
2022-08-20T23:12:28.426Z,19.67
2022-08-20T23:15:34.072Z,19.62
2022-08-20T23:18:41.152Z,19.56
2022-08-20T23:21:47.217Z,19.51
2022-08-20T23:25:00.320Z,19.44
2022-08-20T23:28:04.878Z,19.36
2022-08-20T23:31:13.802Z,19.29
2022-08-20T23:34:22.440Z,19.22
2022-08-20T23:37:27.872Z,19.15
2022-08-20T23:40:36.187Z,19.09
2022-08-20T23:43:43.074Z,19.03
2022-08-20T23:46:48.968Z,19.01
2022-08-20T23:49:57.745Z,19.02
2022-08-20T23:53:05.446Z,19.00
2022-08-20T23:56:11.816Z,18.96
2022-08-20T23:59:17.813Z,18.90
